Time;durP1;ratioP1;P1;durP2;ratioP2;P2;SDS_P1;SDS_P2;PMS_P1;PMS_P2;Temp;Humidity;BMP_temperature;BMP_pressure;BME280_temperature;BME280_humidity;BME280_pressure;Samples;Min_cycle;Max_cycle;Signal;HPM_P1;HPM_P2
2022/12/20 00:01:41;;;;;;;13.10;7.97;;;;;;;6.01;60.79;96414.06;5049307;28;20187;-46
2022/12/20 00:04:07;;;;;;;12.00;7.63;;;;;;;6.00;60.97;96412.41;5049924;28;20204;-46
2022/12/20 00:06:35;;;;;;;11.87;7.73;;;;;;;5.99;61.02;96410.75;5049734;28;20199;-46
2022/12/20 00:09:05;;;;;;;11.40;7.47;;;;;;;5.98;61.10;96414.19;5050098;28;20183;-46
2022/12/20 00:11:33;;;;;;;11.80;8.07;;;;;;;5.91;61.12;96407.69;5049727;28;20194;-45
2022/12/20 00:14:00;;;;;;;9.70;7.07;;;;;;;5.97;60.85;96424.41;5049467;28;20191;-47
2022/12/20 00:16:29;;;;;;;13.37;7.73;;;;;;;5.95;61.03;96423.66;5049437;28;20199;-47
2022/12/20 00:18:58;;;;;;;11.60;7.70;;;;;;;5.94;61.29;96429.63;5049386;28;20621;-46
2022/12/20 00:21:26;;;;;;;9.00;6.73;;;;;;;5.93;61.14;96420.38;5049304;28;20191;-46
2022/12/20 00:23:53;;;;;;;9.40;7.00;;;;;;;5.93;61.10;96427.97;5049627;28;20183;-46
2022/12/20 00:26:23;;;;;;;9.00;6.80;;;;;;;5.89;61.27;96422.19;5049689;28;20190;-46
2022/12/20 00:28:51;;;;;;;12.20;7.57;;;;;;;5.75;61.10;96409.25;5048916;28;20226;-46
2022/12/20 00:31:19;;;;;;;11.93;7.63;;;;;;;5.90;61.07;96428.91;5049152;28;20195;-46
2022/12/20 00:33:48;;;;;;;11.90;7.23;;;;;;;5.81;61.16;96414.06;5048976;28;20655;-46
2022/12/20 00:36:16;;;;;;;9.97;6.67;;;;;;;5.88;61.12;96430.69;5049528;28;20238;-46
2022/12/20 00:38:45;;;;;;;9.50;7.27;;;;;;;5.87;61.11;96423.13;5029263;28;20191;-46
2022/12/20 00:41:13;;;;;;;10.23;6.63;;;;;;;5.86;61.19;96421.47;5029437;28;20199;-45
2022/12/20 00:43:40;;;;;;;10.33;6.60;;;;;;;5.85;61.04;96415.59;5029407;28;20191;-46
2022/12/20 00:46:11;;;;;;;10.77;6.70;;;;;;;5.86;60.71;96421.47;5031985;28;20229;-46
2022/12/20 00:48:38;;;;;;;13.33;7.37;;;;;;;5.84;61.15;96418.19;5049004;28;20186;-46
2022/12/20 00:51:07;;;;;;;10.10;6.97;;;;;;;5.60;61.16;96382.00;5049259;28;20203;-46
2022/12/20 00:53:34;;;;;;;11.60;6.50;;;;;;;5.78;61.09;96412.47;5048852;28;20191;-46
2022/12/20 00:56:01;;;;;;;11.17;6.93;;;;;;;5.81;61.17;96416.59;5048942;28;20218;-45
2022/12/20 00:58:28;;;;;;;10.00;6.93;;;;;;;5.64;60.98;96397.00;5048662;28;20647;-46
2022/12/20 01:00:55;;;;;;;10.50;7.17;;;;;;;5.73;61.01;96414.38;5049029;28;20210;-47
2022/12/20 01:03:24;;;;;;;8.40;7.03;;;;;;;5.79;61.13;96429.38;5031942;28;20694;-47
2022/12/20 01:05:52;;;;;;;12.73;7.63;;;;;;;5.78;61.04;96422.63;5029143;28;20599;-46
2022/12/20 01:08:20;;;;;;;11.50;7.30;;;;;;;5.77;61.00;96428.59;5033300;28;20266;-46
2022/12/20 01:10:47;;;;;;;11.63;6.90;;;;;;;5.73;60.99;96422.00;5048514;28;20735;-46
2022/12/20 01:13:14;;;;;;;11.07;7.87;;;;;;;5.75;61.09;96424.50;5049034;28;20198;-47
2022/12/20 01:15:41;;;;;;;10.33;6.93;;;;;;;5.71;60.93;96413.66;5048222;28;20587;-46
2022/12/20 01:18:08;;;;;;;9.97;7.10;;;;;;;5.73;61.04;96408.50;5048820;28;20201;-46
2022/12/20 01:20:36;;;;;;;12.47;7.53;;;;;;;5.72;60.98;96410.22;5048418;28;20198;-46
2022/12/20 01:23:03;;;;;;;9.43;7.10;;;;;;;5.70;60.96;96406.94;5049134;28;20183;-47
2022/12/20 01:25:30;;;;;;;11.40;7.53;;;;;;;5.69;60.87;96402.72;5048349;28;20675;-46
2022/12/20 01:27:57;;;;;;;10.37;7.10;;;;;;;5.69;60.90;96404.44;5048764;28;20302;-46
2022/12/20 01:30:23;;;;;;;9.63;6.77;;;;;;;5.13;61.01;96311.25;5048246;28;20277;-47
2022/12/20 01:32:50;;;;;;;11.10;6.67;;;;;;;5.68;60.98;96390.91;5052668;28;20198;-46
2022/12/20 01:35:17;;;;;;;10.33;7.43;;;;;;;5.64;60.97;96380.97;5052149;28;20226;-46
2022/12/20 01:37:45;;;;;;;10.70;6.60;;;;;;;5.67;60.97;96393.53;5032848;28;20317;-47
2022/12/20 01:40:13;;;;;;;11.77;6.80;;;;;;;5.63;60.78;96392.84;5032628;28;20198;-47
2022/12/20 01:42:39;;;;;;;10.97;7.20;;;;;;;5.64;60.83;96389.41;5032320;28;20215;-47
2022/12/20 01:45:13;;;;;;;11.80;7.70;;;;;;;5.59;60.86;96375.28;5034918;28;20203;-46
2022/12/20 01:47:40;;;;;;;10.23;6.77;;;;;;;5.62;60.79;96377.69;5052029;28;20230;-46
2022/12/20 01:50:08;;;;;;;8.30;6.40;;;;;;;5.61;60.62;96379.38;5052474;28;20563;-45
2022/12/20 01:52:39;;;;;;;8.93;6.80;;;;;;;5.60;60.82;96377.72;5051926;28;20221;-46
2022/12/20 01:55:13;;;;;;;10.13;6.73;;;;;;;5.56;60.92;96373.69;5052259;28;20258;-46
2022/12/20 01:57:45;;;;;;;9.73;7.10;;;;;;;5.36;60.70;96346.63;5051767;28;20219;-47
2022/12/20 02:00:13;;;;;;;9.27;6.73;;;;;;;5.56;60.69;96371.13;5052337;28;20191;-47
2022/12/20 02:02:42;;;;;;;8.90;6.43;;;;;;;5.55;60.75;96372.03;5051786;28;20191;-46
2022/12/20 02:05:10;;;;;;;9.83;6.73;;;;;;;5.37;60.52;96338.13;5051787;28;20226;-47
2022/12/20 02:07:38;;;;;;;8.73;6.57;;;;;;;5.52;60.62;96372.97;5051754;28;20195;-49
2022/12/20 02:10:08;;;;;;;10.37;6.13;;;;;;;5.52;60.71;96372.16;5052316;28;20198;-45
2022/12/20 02:12:41;;;;;;;8.90;6.53;;;;;;;5.51;60.73;96368.81;5052085;28;20183;-46
2022/12/20 02:15:25;;;;;;;9.07;5.97;;;;;;;5.51;60.69;96370.50;5051522;28;20264;-46
2022/12/20 02:18:03;;;;;;;8.73;6.37;;;;;;;5.44;60.70;96361.50;5051756;28;20674;-45
2022/12/20 02:21:02;;;;;;;7.90;5.90;;;;;;;5.48;60.63;96366.41;5051756;28;20198;-46
2022/12/20 02:24:10;;;;;;;9.80;6.83;;;;;;;5.46;60.63;96368.19;5051593;28;20197;-46
2022/12/20 02:27:17;;;;;;;11.33;6.50;;;;;;;5.42;60.66;96364.13;4913082;29;20227;-46
2022/12/20 02:30:08;;;;;;;8.80;6.53;;;;;;;5.44;60.71;96369.13;4911935;29;20265;-46
2022/12/20 02:32:42;;;;;;;9.27;6.57;;;;;;;5.43;60.70;96367.47;4912708;29;20300;-45
2022/12/20 02:35:12;;;;;;;11.97;6.67;;;;;;;5.32;60.51;96349.38;4912488;29;20314;-46
2022/12/20 02:37:47;;;;;;;10.47;6.10;;;;;;;5.38;60.66;96365.13;4912607;29;20235;-45
2022/12/20 02:40:17;;;;;;;8.83;6.30;;;;;;;5.39;60.73;96364.25;4912979;29;20609;-48
2022/12/20 02:42:45;;;;;;;9.30;6.53;;;;;;;5.40;60.75;96367.63;4911151;29;20196;-47
2022/12/20 02:45:16;;;;;;;10.13;6.70;;;;;;;5.39;60.74;96361.69;4912370;29;20200;-45
2022/12/20 02:47:48;;;;;;;8.93;6.50;;;;;;;5.39;60.68;96359.16;4912463;29;20317;-45
2022/12/20 02:50:20;;;;;;;9.93;6.73;;;;;;;5.40;60.68;96355.75;4912608;29;20199;-47
2022/12/20 02:52:47;;;;;;;9.10;6.33;;;;;;;5.41;60.72;96354.06;4893371;29;20200;-46
2022/12/20 02:55:14;;;;;;;8.17;6.27;;;;;;;5.41;60.48;96361.66;4901229;29;20219;-46
2022/12/20 02:57:46;;;;;;;10.43;6.80;;;;;;;5.40;60.63;96358.31;4912146;29;20225;-45
2022/12/20 03:00:16;;;;;;;10.80;6.90;;;;;;;5.40;60.65;96358.31;4900189;29;20227;-46
2022/12/20 03:05:32;;;;;;;8.87;6.03;;;;;;;5.37;60.71;96350.00;5030679;28;20206;-46
2022/12/20 03:07:59;;;;;;;10.33;6.63;;;;;;;5.38;60.63;96352.47;5030544;28;20595;-46
2022/12/20 03:10:26;;;;;;;10.83;6.70;;;;;;;5.37;60.60;96350.00;5030795;28;20676;-47
2022/12/20 03:12:53;;;;;;;9.97;6.93;;;;;;;5.37;60.59;96340.66;5030591;28;20669;-45
2022/12/20 03:15:21;;;;;;;8.07;6.07;;;;;;;5.33;60.50;96338.31;5047545;28;20211;-46
2022/12/20 03:17:48;;;;;;;8.83;6.20;;;;;;;5.34;60.39;96338.25;5050461;28;20195;-46
2022/12/20 03:20:15;;;;;;;8.23;6.57;;;;;;;5.32;60.47;96337.50;5050276;28;20226;-46
2022/12/20 03:22:42;;;;;;;8.33;6.23;;;;;;;5.32;60.44;96340.03;5050291;28;20202;-46
2022/12/20 03:25:09;;;;;;;8.10;6.27;;;;;;;5.20;60.47;96325.34;5050416;28;20639;-46
2022/12/20 03:27:36;;;;;;;10.13;6.47;;;;;;;5.29;60.53;96345.25;5049934;28;20187;-46
2022/12/20 03:30:03;;;;;;;9.83;5.87;;;;;;;5.27;60.59;96340.25;5050229;28;20733;-46
2022/12/20 03:32:31;;;;;;;11.67;7.10;;;;;;;5.26;60.66;96338.56;5050211;28;20195;-45
2022/12/20 03:34:58;;;;;;;9.27;6.67;;;;;;;5.24;60.36;96340.34;5050464;28;20225;-46
2022/12/20 03:37:25;;;;;;;8.43;6.77;;;;;;;5.23;60.61;96341.25;5049788;28;20219;-47
2022/12/20 03:39:52;;;;;;;9.53;6.57;;;;;;;5.22;60.59;96338.75;5049971;28;20191;-45
2022/12/20 03:42:19;;;;;;;8.00;6.27;;;;;;;4.93;60.57;96295.19;5049854;28;20570;-45
2022/12/20 03:44:46;;;;;;;7.70;5.87;;;;;;;5.19;60.68;96337.19;5049827;28;20199;-45
2022/12/20 03:47:12;;;;;;;8.67;6.57;;;;;;;5.18;60.53;96334.72;5049984;28;20199;-46
2022/12/20 03:49:41;;;;;;;10.30;6.17;;;;;;;5.17;60.53;96333.06;5049452;28;20195;-45
2022/12/20 03:52:08;;;;;;;8.97;6.03;;;;;;;5.17;60.61;96338.13;5049976;28;20191;-46
2022/12/20 03:54:34;;;;;;;9.20;6.07;;;;;;;5.15;60.64;96334.84;5049476;28;20190;-46
2022/12/20 03:57:01;;;;;;;8.10;6.47;;;;;;;5.15;60.50;96332.31;5049659;28;20214;-45
2022/12/20 03:59:28;;;;;;;10.27;7.03;;;;;;;5.13;60.51;96339.97;5049603;28;20194;-46
2022/12/20 04:01:55;;;;;;;11.23;7.57;;;;;;;5.12;60.56;96332.44;5049359;28;20191;-46
2022/12/20 04:04:21;;;;;;;8.70;6.10;;;;;;;5.01;60.54;96326.13;5049413;28;20186;-47
2022/12/20 04:06:50;;;;;;;10.73;6.73;;;;;;;5.09;60.65;96345.25;5049574;28;20190;-48
2022/12/20 04:09:16;;;;;;;10.83;7.30;;;;;;;5.08;60.79;96341.06;5049636;28;20184;-46
2022/12/20 04:11:43;;;;;;;10.43;6.47;;;;;;;5.06;60.69;96332.72;5049312;28;20210;-46
2022/12/20 04:14:10;;;;;;;8.70;6.27;;;;;;;5.05;60.58;96339.47;5049742;28;20570;-45
2022/12/20 04:16:37;;;;;;;8.30;6.50;;;;;;;5.00;60.69;96324.44;5049039;28;20207;-46
2022/12/20 04:19:04;;;;;;;9.67;7.07;;;;;;;4.96;60.77;96319.56;5049331;28;20195;-46
2022/12/20 04:21:33;;;;;;;9.53;6.33;;;;;;;5.01;60.69;96332.91;5049396;28;20198;-46
2022/12/20 04:24:03;;;;;;;10.53;7.00;;;;;;;5.00;60.64;96334.59;5049317;28;20210;-47
2022/12/20 04:26:30;;;;;;;10.13;7.03;;;;;;;5.00;60.74;96336.31;5049000;28;20187;-46
2022/12/20 04:28:57;;;;;;;9.87;7.20;;;;;;;4.99;60.73;96329.59;5049185;28;20231;-45
2022/12/20 04:31:25;;;;;;;8.70;6.47;;;;;;;4.98;60.84;96325.41;5049052;28;20193;-46
2022/12/20 04:33:52;;;;;;;10.50;7.73;;;;;;;4.96;60.78;96324.63;5049082;28;20643;-45
2022/12/20 04:36:19;;;;;;;10.47;7.50;;;;;;;4.95;60.80;96318.75;5048689;28;20238;-46
2022/12/20 04:38:46;;;;;;;11.20;7.30;;;;;;;4.95;60.79;96316.22;5048724;28;20265;-45
2022/12/20 04:41:21;;;;;;;10.73;7.23;;;;;;;4.94;60.72;96321.34;5048940;28;20198;-46
2022/12/20 04:43:49;;;;;;;9.87;7.10;;;;;;;4.93;60.76;96312.94;5049375;28;20194;-48
2022/12/20 04:46:16;;;;;;;10.53;7.30;;;;;;;4.92;60.69;96312.97;5048950;28;20236;-45
2022/12/20 04:48:43;;;;;;;8.33;6.87;;;;;;;4.82;60.87;96310.00;5049437;28;20183;-46
2022/12/20 04:51:10;;;;;;;10.80;7.23;;;;;;;4.86;61.10;96310.69;5048764;28;20198;-45
2022/12/20 04:53:48;;;;;;;11.53;7.53;;;;;;;4.85;60.72;96307.34;5049279;28;20194;-45
2022/12/20 04:56:21;;;;;;;12.30;7.30;;;;;;;4.86;60.90;96323.38;5048417;28;20309;-46
2022/12/20 04:58:51;;;;;;;9.43;7.20;;;;;;;4.84;60.86;96315.84;5049113;28;20633;-47
2022/12/20 05:01:18;;;;;;;12.30;7.90;;;;;;;4.84;60.86;96313.31;5048695;28;20205;-45
2022/12/20 05:03:46;;;;;;;10.00;7.40;;;;;;;4.82;60.80;96312.53;5048868;28;20187;-46
2022/12/20 05:06:13;;;;;;;11.60;7.27;;;;;;;4.80;60.78;96314.31;5049646;28;20191;-45
2022/12/20 05:08:40;;;;;;;10.27;7.03;;;;;;;4.80;60.79;96310.97;5053456;28;20202;-44
2022/12/20 05:11:07;;;;;;;10.20;7.63;;;;;;;4.73;60.89;96302.78;5052621;28;20194;-46
2022/12/20 05:13:35;;;;;;;10.40;7.63;;;;;;;4.77;60.82;96315.25;5053335;28;20182;-46
2022/12/20 05:16:02;;;;;;;10.10;7.30;;;;;;;4.77;60.75;96322.03;5053063;28;20213;-46
2022/12/20 05:18:29;;;;;;;10.03;7.63;;;;;;;4.75;60.77;96317.03;5052760;28;20292;-47
2022/12/20 05:26:26;;;;;;;11.50;7.20;;;;;;;4.71;60.98;96325.66;5051872;28;20572;-47
2022/12/20 05:28:55;;;;;;;11.27;7.03;;;;;;;4.67;60.79;96314.00;5052519;28;20779;-47
2022/12/20 05:31:21;;;;;;;10.27;7.10;;;;;;;4.69;60.73;96317.28;5052155;28;20184;-45
2022/12/20 05:33:48;;;;;;;11.50;7.90;;;;;;;4.69;60.84;96319.81;5052681;28;20654;-45
2022/12/20 05:36:15;;;;;;;15.27;8.60;;;;;;;4.66;60.77;96314.88;5051925;28;20570;-46
2022/12/20 05:38:42;;;;;;;10.10;7.43;;;;;;;4.68;60.88;96327.47;5052911;28;20607;-46
2022/12/20 05:41:09;;;;;;;11.43;7.00;;;;;;;4.66;60.77;96322.50;5052651;28;20183;-47
2022/12/20 05:43:35;;;;;;;11.27;7.23;;;;;;;4.65;60.98;96323.34;5052356;28;20650;-45
2022/12/20 05:46:04;;;;;;;9.37;7.50;;;;;;;4.64;60.95;96331.84;5052346;28;20186;-46
2022/12/20 05:48:30;;;;;;;11.13;7.37;;;;;;;4.64;60.79;96326.78;5052517;28;20611;-45
2022/12/20 05:50:57;;;;;;;10.67;6.00;;;;;;;5.01;95.22;96325.28;5052010;28;20195;-46
2022/12/20 05:53:25;;;;;;;13.53;6.47;;;;;;;5.43;89.41;96330.25;5051503;28;20217;-46
2022/12/20 05:55:53;;;;;;;8.33;5.97;;;;;;;5.14;84.23;96257.97;5050753;28;20222;-45
2022/12/20 05:58:20;;;;;;;8.33;6.27;;;;;;;5.66;80.21;96321.66;5051350;28;20678;-44
2022/12/20 06:00:47;;;;;;;7.83;5.93;;;;;;;5.65;76.72;96330.13;5051658;28;20195;-47
2022/12/20 06:03:15;;;;;;;7.97;6.30;;;;;;;5.63;74.75;96331.09;5052186;28;20188;-45
2022/12/20 06:05:43;;;;;;;12.73;7.27;;;;;;;5.60;73.76;96328.69;5051790;28;20206;-45
2022/12/20 06:08:12;;;;;;;11.20;6.43;;;;;;;5.58;72.96;96327.94;5051902;28;20221;-45
2022/12/20 06:10:40;;;;;;;8.40;6.30;;;;;;;5.51;72.26;96330.75;5052261;28;20183;-47
2022/12/20 06:13:08;;;;;;;10.47;7.50;;;;;;;5.52;71.83;96323.94;5038982;28;20259;-45
2022/12/20 06:15:35;;;;;;;9.93;7.00;;;;;;;5.50;71.54;96326.56;5034430;28;20595;-45
2022/12/20 06:18:02;;;;;;;11.67;6.97;;;;;;;5.49;71.18;96326.63;5049077;28;20221;-46
2022/12/20 06:20:30;;;;;;;10.03;7.53;;;;;;;5.50;70.83;96326.56;5049961;28;20570;-45
2022/12/20 06:22:57;;;;;;;10.13;6.70;;;;;;;5.52;70.54;96323.94;5048900;28;20662;-45
2022/12/20 06:25:24;;;;;;;13.70;8.23;;;;;;;5.63;70.14;96323.50;5047685;28;20248;-46
2022/12/20 06:27:51;;;;;;;10.60;7.70;;;;;;;5.88;69.82;96330.84;5050528;28;20242;-46
2022/12/20 06:30:19;;;;;;;11.30;7.97;;;;;;;6.14;69.52;96322.91;5051230;28;20199;-45
2022/12/20 06:32:46;;;;;;;14.80;8.10;;;;;;;6.45;68.96;96329.91;5051645;28;20790;-45
2022/12/20 06:35:13;;;;;;;14.37;7.03;;;;;;;6.80;68.51;96322.31;5051267;28;20192;-46
2022/12/20 06:37:42;;;;;;;10.83;7.73;;;;;;;7.18;68.38;96325.53;5050300;28;20653;-45
2022/12/20 06:40:10;;;;;;;10.50;7.47;;;;;;;7.59;68.47;96320.03;5048652;28;20195;-45
2022/12/20 06:42:37;;;;;;;12.03;8.20;;;;;;;7.91;68.75;96298.00;5031905;28;20187;-45
2022/12/20 06:45:05;;;;;;;10.43;7.53;;;;;;;8.47;68.27;96324.72;5049401;28;20206;-46
2022/12/20 06:47:32;;;;;;;9.20;7.60;;;;;;;8.92;67.90;96314.56;5050190;28;20194;-44
2022/12/20 06:49:59;;;;;;;12.63;7.90;;;;;;;9.37;66.70;96317.91;5050076;28;20190;-45
2022/12/20 06:52:25;;;;;;;11.87;7.57;;;;;;;9.84;65.97;96309.16;5048597;28;20191;-44
2022/12/20 06:54:54;;;;;;;15.23;6.97;;;;;;;10.27;64.92;96308.16;5048753;28;20626;-46
2022/12/20 06:57:21;;;;;;;11.77;7.27;;;;;;;10.72;64.14;96306.19;5049194;28;20219;-45
2022/12/20 06:59:47;;;;;;;8.50;6.43;;;;;;;11.16;63.04;96306.75;5049974;28;20195;-45
2022/12/20 07:02:14;;;;;;;11.13;6.37;;;;;;;11.58;62.11;96299.69;5050187;28;20187;-47
2022/12/20 07:04:41;;;;;;;10.97;7.20;;;;;;;12.00;61.14;96298.50;5050061;28;20651;-46
2022/12/20 07:07:08;;;;;;;10.67;7.57;;;;;;;12.25;60.29;96282.22;5049857;28;20202;-46
2022/12/20 07:09:36;;;;;;;7.27;5.73;;;;;;;12.74;59.36;96299.25;5049558;28;20629;-47
2022/12/20 07:12:05;;;;;;;8.20;6.63;;;;;;;12.97;58.44;96287.28;5049341;28;20257;-46
2022/12/20 07:14:32;;;;;;;9.43;6.57;;;;;;;13.38;57.39;96294.50;5050081;28;20230;-45
2022/12/20 07:16:58;;;;;;;10.47;6.90;;;;;;;13.71;56.54;96293.72;5049437;28;20199;-45
2022/12/20 07:19:25;;;;;;;11.63;6.57;;;;;;;14.03;55.87;96301.53;5050246;28;20217;-44
2022/12/20 07:21:52;;;;;;;12.87;7.87;;;;;;;14.32;55.17;96295.84;5049117;28;20210;-45
2022/12/20 07:24:19;;;;;;;7.73;6.50;;;;;;;14.58;54.63;96290.41;5049435;28;20202;-47
2022/12/20 07:26:46;;;;;;;9.50;6.67;;;;;;;14.87;54.08;96294.03;5048761;28;20195;-44
2022/12/20 07:29:14;;;;;;;11.43;6.53;;;;;;;15.06;53.38;96289.00;5048509;28;20223;-45
2022/12/20 07:31:41;;;;;;;9.03;6.63;;;;;;;15.37;52.68;96293.38;5049893;28;20542;-48
2022/12/20 07:34:07;;;;;;;9.10;6.33;;;;;;;15.61;52.03;96296.50;5049676;28;20187;-48
2022/12/20 07:36:34;;;;;;;9.23;6.73;;;;;;;15.82;51.42;96300.84;5049543;28;20191;-47
2022/12/20 07:39:01;;;;;;;8.17;6.93;;;;;;;15.77;51.06;96262.53;5048912;28;20214;-48
2022/12/20 07:41:28;;;;;;;9.40;6.67;;;;;;;16.04;51.06;96295.47;5049307;28;20194;-45
2022/12/20 07:43:57;;;;;;;9.53;7.50;;;;;;;15.90;50.96;96291.50;5048928;28;20199;-46
2022/12/20 07:46:25;;;;;;;8.47;6.77;;;;;;;15.76;51.10;96291.84;5049275;28;20276;-44
2022/12/20 07:48:52;;;;;;;10.93;6.87;;;;;;;15.60;51.07;96296.63;5047827;28;20249;-47
2022/12/20 07:51:23;;;;;;;9.47;6.70;;;;;;;15.35;51.00;96283.22;5048956;28;20198;-45
2022/12/20 07:53:54;;;;;;;10.20;7.13;;;;;;;15.16;50.71;96296.00;5047866;28;20671;-46
2022/12/20 07:56:22;;;;;;;10.27;6.83;;;;;;;14.92;50.67;96285.94;5049313;28;20207;-45
2022/12/20 07:58:51;;;;;;;9.93;7.00;;;;;;;14.66;50.26;96278.56;5049088;28;20214;-46
2022/12/20 08:01:20;;;;;;;14.00;7.73;;;;;;;14.44;50.49;96281.19;5046301;28;20304;-45
2022/12/20 08:03:53;;;;;;;8.93;7.10;;;;;;;14.24;50.01;96286.16;5048705;28;20205;-46
2022/12/20 08:06:20;;;;;;;9.80;7.23;;;;;;;14.18;49.46;96285.81;5049048;28;20199;-45
2022/12/20 08:08:51;;;;;;;9.00;7.10;;;;;;;13.89;49.17;96260.59;5048388;28;20199;-45
2022/12/20 08:11:20;;;;;;;10.90;7.40;;;;;;;13.77;49.38;96280.41;5048782;28;20198;-47
2022/12/20 08:13:48;;;;;;;12.70;6.70;;;;;;;13.56;49.24;96279.47;5048643;28;20199;-45
2022/12/20 08:16:15;;;;;;;10.90;7.63;;;;;;;13.42;49.23;96282.25;5048294;28;20187;-45
2022/12/20 08:18:42;;;;;;;9.47;6.43;;;;;;;13.42;49.04;96271.97;5048718;28;20218;-45
2022/12/20 08:21:11;;;;;;;10.77;7.17;;;;;;;13.33;48.51;96273.47;5048382;28;20260;-46
2022/12/20 08:23:38;;;;;;;11.33;7.77;;;;;;;13.15;48.81;96270.50;5047822;28;20190;-45
2022/12/20 08:26:05;;;;;;;8.73;6.77;;;;;;;13.04;48.87;96275.66;5048608;28;20183;-45
2022/12/20 08:28:32;;;;;;;9.23;6.90;;;;;;;12.86;48.88;96259.00;5048620;28;20226;-44
2022/12/20 08:31:03;;;;;;;9.20;6.70;;;;;;;12.93;48.72;96273.03;5048204;28;20198;-44
2022/12/20 08:33:30;;;;;;;14.23;7.67;;;;;;;13.06;48.23;96272.00;5048215;28;20195;-46
2022/12/20 08:35:58;;;;;;;9.87;6.90;;;;;;;13.32;47.41;96256.44;5048201;28;20199;-45
2022/12/20 08:38:28;;;;;;;9.90;7.27;;;;;;;13.48;46.86;96256.09;5047950;28;20234;-45
2022/12/20 08:40:55;;;;;;;11.60;7.70;;;;;;;13.38;46.60;96252.56;5047891;28;20667;-45
2022/12/20 08:43:22;;;;;;;9.33;7.13;;;;;;;13.18;46.87;96266.91;5048599;28;20575;-45
2022/12/20 08:45:53;;;;;;;14.27;7.53;;;;;;;12.85;47.23;96254.81;5048137;28;20191;-45
2022/12/20 08:48:20;;;;;;;13.30;7.43;;;;;;;12.74;47.48;96263.31;5046079;28;20634;-46
2022/12/20 08:50:46;;;;;;;10.07;7.70;;;;;;;12.55;47.82;96266.38;5047829;28;20647;-45
2022/12/20 08:53:13;;;;;;;10.07;7.10;;;;;;;12.24;47.72;96234.41;5047491;28;20191;-45
2022/12/20 08:55:41;;;;;;;9.50;7.57;;;;;;;12.23;48.15;96255.88;5047820;28;20183;-46
2022/12/20 08:58:08;;;;;;;12.10;7.30;;;;;;;12.11;48.24;96264.44;5048297;28;20214;-45
2022/12/20 09:00:36;;;;;;;12.20;7.63;;;;;;;11.99;48.35;96256.66;5047645;28;20641;-46
2022/12/20 09:03:02;;;;;;;10.83;7.57;;;;;;;11.74;48.41;96231.91;5048110;28;20198;-45
2022/12/20 09:05:29;;;;;;;9.50;7.17;;;;;;;11.79;48.51;96252.91;5047498;28;20819;-45
2022/12/20 09:07:56;;;;;;;9.57;7.47;;;;;;;11.71;48.56;96249.25;5047675;28;20186;-45
2022/12/20 09:10:23;;;;;;;8.67;6.93;;;;;;;11.56;48.56;96231.41;5047886;28;20195;-45
2022/12/20 09:12:51;;;;;;;11.47;7.53;;;;;;;11.54;48.83;96233.28;5048443;28;20218;-47
2022/12/20 09:15:18;;;;;;;10.63;7.17;;;;;;;11.45;48.80;96226.22;5048347;28;20190;-47
2022/12/20 09:17:46;;;;;;;9.67;7.30;;;;;;;11.44;48.75;96236.56;5047785;28;20250;-47
2022/12/20 09:20:14;;;;;;;9.80;6.87;;;;;;;11.39;48.73;96233.50;5047914;28;20217;-47
2022/12/20 09:22:41;;;;;;;11.10;8.03;;;;;;;11.32;48.75;96228.00;5045214;28;20218;-44
2022/12/20 09:25:08;;;;;;;10.00;7.83;;;;;;;11.27;48.63;96223.19;5047682;28;20198;-45
2022/12/20 09:27:35;;;;;;;9.20;6.03;;;;;;;11.19;48.56;96214.38;5047311;28;20313;-45
2022/12/20 09:30:04;;;;;;;10.83;6.70;;;;;;;11.17;48.62;96214.47;5047411;28;20608;-45
2022/12/20 09:32:31;;;;;;;10.60;7.47;;;;;;;11.15;48.54;96205.28;5047209;28;20187;-44
2022/12/20 09:34:57;;;;;;;10.73;7.13;;;;;;;11.11;48.78;96209.78;5047089;28;20187;-45
2022/12/20 09:37:24;;;;;;;11.30;7.43;;;;;;;11.09;48.91;96215.91;5047024;28;20639;-44
2022/12/20 09:39:51;;;;;;;9.50;6.80;;;;;;;11.03;48.50;96207.72;5048089;28;20202;-44
2022/12/20 09:42:24;;;;;;;10.73;7.17;;;;;;;10.95;48.63;96192.06;5047561;28;20210;-46
2022/12/20 09:44:51;;;;;;;19.47;8.37;;;;;;;10.94;48.77;96197.28;5047875;28;20550;-46
2022/12/20 09:47:22;;;;;;;9.87;7.70;;;;;;;10.91;48.62;96194.94;5047298;28;20198;-46
2022/12/20 09:49:56;;;;;;;9.70;6.73;;;;;;;10.89;48.58;96187.38;5048294;28;20191;-46
2022/12/20 09:52:36;;;;;;;9.40;7.40;;;;;;;10.88;48.55;96192.56;5049028;28;20195;-47
2022/12/20 09:55:17;;;;;;;8.17;6.90;;;;;;;10.74;48.75;96161.03;5049471;28;20198;-46
2022/12/20 09:57:58;;;;;;;11.23;7.03;;;;;;;10.84;48.58;96179.19;5048844;28;20697;-49
2022/12/20 10:00:25;;;;;;;11.77;6.87;;;;;;;10.85;48.20;96170.56;5051076;28;20187;-44
2022/12/20 10:02:54;;;;;;;9.47;6.97;;;;;;;10.86;48.46;96167.09;5050559;28;20647;-47
2022/12/20 10:05:31;;;;;;;10.57;6.77;;;;;;;10.85;48.39;96160.34;5050906;28;20183;-44
2022/12/20 10:08:07;;;;;;;10.10;6.67;;;;;;;10.90;48.29;96155.72;5048958;28;20697;-44
2022/12/20 10:10:54;;;;;;;10.90;7.10;;;;;;;10.92;48.34;96150.47;5050697;28;20328;-44
2022/12/20 10:13:45;;;;;;;11.30;7.20;;;;;;;10.90;48.20;96150.59;5050129;28;20198;-46
2022/12/20 10:16:32;;;;;;;8.73;6.53;;;;;;;10.91;48.35;96136.06;5050517;28;20192;-45
2022/12/20 10:19:14;;;;;;;8.83;6.83;;;;;;;10.93;48.11;96126.56;5050107;28;20214;-46
2022/12/20 10:21:49;;;;;;;9.03;6.83;;;;;;;10.94;48.35;96116.19;5050236;28;20195;-45
2022/12/20 10:24:18;;;;;;;10.17;6.83;;;;;;;10.95;48.35;96112.69;5050525;28;20202;-45
2022/12/20 10:26:49;;;;;;;8.17;6.50;;;;;;;10.47;48.38;96029.88;5050844;28;20195;-45
2022/12/20 10:29:16;;;;;;;12.40;7.23;;;;;;;10.98;48.41;96101.44;5050373;28;20710;-45
2022/12/20 10:31:43;;;;;;;12.43;6.87;;;;;;;10.96;48.31;96085.38;5050815;28;20202;-46
2022/12/20 10:34:11;;;;;;;10.33;7.30;;;;;;;11.03;48.12;96091.72;5050501;28;20203;-44
2022/12/20 10:36:38;;;;;;;9.10;6.80;;;;;;;11.09;48.47;96082.78;5050533;28;20206;-44
2022/12/20 10:39:07;;;;;;;9.73;7.07;;;;;;;11.13;48.07;96084.19;5050727;28;20226;-44
2022/12/20 10:41:48;;;;;;;10.33;7.00;;;;;;;11.16;48.23;96084.00;5050330;28;20184;-46
2022/12/20 10:44:20;;;;;;;10.87;6.83;;;;;;;11.14;47.97;96073.03;5050158;28;20252;-45
2022/12/20 10:46:50;;;;;;;10.00;7.10;;;;;;;11.16;48.00;96069.44;5050868;28;20214;-45
2022/12/20 10:49:30;;;;;;;9.17;6.73;;;;;;;11.21;47.97;96062.25;5050184;28;20203;-45
2022/12/20 10:52:00;;;;;;;11.47;6.77;;;;;;;11.26;47.82;96054.25;5046005;28;20206;-45
2022/12/20 10:54:30;;;;;;;8.07;6.63;;;;;;;11.15;47.95;96042.22;5047262;28;20195;-45
2022/12/20 10:57:00;;;;;;;10.00;7.00;;;;;;;11.27;47.86;96055.91;5047928;28;20202;-45
2022/12/20 10:59:34;;;;;;;13.40;7.07;;;;;;;11.28;48.04;96047.28;5047846;28;20309;-45
2022/12/20 11:02:00;;;;;;;8.30;6.67;;;;;;;11.31;48.04;96057.28;5047897;28;20266;-45
2022/12/20 11:04:31;;;;;;;9.93;6.90;;;;;;;11.36;47.89;96057.00;5045616;28;20187;-44
2022/12/20 11:06:58;;;;;;;9.37;6.90;;;;;;;11.40;47.81;96050.69;5048018;28;20285;-45
2022/12/20 11:09:31;;;;;;;10.73;7.10;;;;;;;11.45;47.77;96048.66;5047292;28;20705;-46
2022/12/20 11:12:00;;;;;;;10.07;7.23;;;;;;;11.51;47.56;96045.66;5047593;28;20199;-45
2022/12/20 11:14:27;;;;;;;9.37;7.17;;;;;;;11.54;47.46;96043.69;5047155;28;20559;-47
2022/12/20 11:16:56;;;;;;;9.40;6.70;;;;;;;11.56;47.45;96039.25;5044514;28;20206;-45
2022/12/20 11:19:50;;;;;;;11.60;7.13;;;;;;;11.57;47.46;96034.94;5046794;28;20211;-45
2022/12/20 11:22:32;;;;;;;9.57;7.07;;;;;;;11.58;47.30;96033.22;5046811;28;20206;-45
2022/12/20 11:25:17;;;;;;;10.90;6.93;;;;;;;11.59;47.22;96020.28;5044010;28;20187;-46
2022/12/20 11:27:53;;;;;;;10.37;7.20;;;;;;;11.62;47.20;96019.25;5046900;28;20222;-45
2022/12/20 11:30:23;;;;;;;9.07;6.13;;;;;;;11.55;47.30;95996.63;5045371;28;20191;-45
2022/12/20 11:33:10;;;;;;;8.73;6.13;;;;;;;11.69;47.27;96021.25;5046940;28;20187;-47
2022/12/20 11:35:50;;;;;;;10.07;6.47;;;;;;;11.72;47.29;96009.97;5045754;28;20261;-45
2022/12/20 11:38:27;;;;;;;10.73;7.33;;;;;;;11.71;46.96;96003.22;5046558;28;20233;-46
2022/12/20 11:41:10;;;;;;;9.67;6.80;;;;;;;11.79;46.98;96004.28;5045590;28;20191;-45
2022/12/20 11:43:51;;;;;;;9.93;6.27;;;;;;;11.82;46.84;96005.78;5044808;28;20183;-45
2022/12/20 11:46:30;;;;;;;7.70;6.63;;;;;;;11.85;46.99;95997.09;5047209;28;20198;-44
2022/12/20 11:49:19;;;;;;;10.20;6.83;;;;;;;11.83;47.01;95993.81;5047557;28;20678;-45
2022/12/20 11:51:49;;;;;;;9.37;6.40;;;;;;;11.78;46.91;95981.31;5049321;28;20191;-46
2022/12/20 11:54:23;;;;;;;9.93;6.40;;;;;;;11.75;46.73;95992.63;5048274;28;20198;-46